createdAt,value
2023-04-26T00:01:43.820Z,10.30
2023-04-26T00:04:08.313Z,13.40
2023-04-26T00:06:32.154Z,13.10
2023-04-26T00:11:21.348Z,12.70
2023-04-26T00:13:44.793Z,8.20
2023-04-26T00:16:13.121Z,10.70
2023-04-26T00:18:37.289Z,6.70
2023-04-26T00:21:01.028Z,7.60
2023-04-26T00:23:24.846Z,7.70
2023-04-26T00:25:48.473Z,6.70
2023-04-26T00:28:11.924Z,4.20
2023-04-26T00:30:40.622Z,7.00
2023-04-26T00:33:04.314Z,6.50
2023-04-26T00:35:27.972Z,8.80
2023-04-26T00:37:51.794Z,4.30
2023-04-26T00:40:16.612Z,4.40
2023-04-26T00:42:40.596Z,5.80
2023-04-26T00:45:05.762Z,5.40
2023-04-26T00:47:30.713Z,4.50
2023-04-26T00:49:55.288Z,6.30
2023-04-26T00:52:19.054Z,4.70
2023-04-26T00:54:43.518Z,4.70
2023-04-26T00:57:09.268Z,5.50
2023-04-26T00:59:34.319Z,4.50
2023-04-26T01:01:57.904Z,3.90
2023-04-26T01:04:25.829Z,5.40
2023-04-26T01:06:49.931Z,4.30
2023-04-26T01:09:14.724Z,4.90
2023-04-26T01:11:42.199Z,3.40
2023-04-26T01:14:08.587Z,5.40
2023-04-26T01:16:34.957Z,3.70
2023-04-26T01:18:58.875Z,6.30
2023-04-26T01:21:24.355Z,3.80
2023-04-26T01:23:48.145Z,5.00
2023-04-26T01:26:19.393Z,5.80
2023-04-26T01:28:43.985Z,4.90
2023-04-26T01:31:08.026Z,4.90
2023-04-26T01:33:31.461Z,5.40
2023-04-26T01:35:54.934Z,5.70
2023-04-26T01:38:20.188Z,4.10
2023-04-26T01:40:45.476Z,5.20
2023-04-26T01:43:08.905Z,6.50
2023-04-26T01:45:32.528Z,4.60
2023-04-26T01:48:14.731Z,5.50
2023-04-26T01:50:51.508Z,4.30
2023-04-26T01:53:15.108Z,4.00
2023-04-26T01:55:48.928Z,4.20
2023-04-26T01:58:21.868Z,6.40
2023-04-26T02:00:45.942Z,3.80
2023-04-26T02:03:22.701Z,5.80
2023-04-26T02:06:07.247Z,4.20
2023-04-26T02:08:52.057Z,4.00
2023-04-26T02:11:36.084Z,4.30
2023-04-26T02:14:05.821Z,5.40
2023-04-26T02:16:40.147Z,3.30
2023-04-26T02:19:24.097Z,4.50
2023-04-26T02:21:57.378Z,6.60
2023-04-26T02:24:25.356Z,6.80
2023-04-26T02:26:51.774Z,6.90
2023-04-26T02:29:15.634Z,4.00
2023-04-26T02:31:39.716Z,6.30
2023-04-26T02:34:12.960Z,7.10
2023-04-26T02:36:36.676Z,8.20
2023-04-26T02:39:00.753Z,7.20
2023-04-26T02:41:25.561Z,10.10
2023-04-26T02:43:49.119Z,12.10
2023-04-26T02:46:15.526Z,10.60
2023-04-26T02:48:40.341Z,13.60
2023-04-26T02:51:04.400Z,16.60
2023-04-26T02:53:28.020Z,9.70
2023-04-26T02:55:51.910Z,11.20
2023-04-26T02:58:15.370Z,14.10
2023-04-26T03:00:39.467Z,12.10
2023-04-26T03:03:05.670Z,12.30
2023-04-26T03:05:29.339Z,11.50
2023-04-26T03:07:53.172Z,15.80
2023-04-26T03:10:16.934Z,17.70
2023-04-26T03:12:40.975Z,14.70
2023-04-26T03:15:06.261Z,13.50
2023-04-26T03:17:30.024Z,13.50
2023-04-26T03:19:53.826Z,14.60
2023-04-26T03:22:17.859Z,18.50
2023-04-26T03:24:41.927Z,15.90
2023-04-26T03:27:05.593Z,21.50
2023-04-26T03:29:30.742Z,19.10
2023-04-26T03:31:54.410Z,15.50
2023-04-26T03:34:18.236Z,16.30
2023-04-26T03:36:42.223Z,14.80
2023-04-26T03:39:05.767Z,20.50
2023-04-26T03:41:29.451Z,18.80
2023-04-26T03:43:56.091Z,17.30
2023-04-26T03:46:20.314Z,15.90
2023-04-26T03:48:44.753Z,19.30
2023-04-26T03:51:08.420Z,12.90
2023-04-26T03:53:31.991Z,14.80
2023-04-26T03:55:56.230Z,14.80
2023-04-26T03:58:19.940Z,18.10
2023-04-26T04:00:43.410Z,18.60
2023-04-26T04:03:08.196Z,13.60
2023-04-26T04:05:32.214Z,12.80
2023-04-26T04:10:23.938Z,13.00
2023-04-26T04:12:47.848Z,13.90
2023-04-26T04:15:12.089Z,15.90
2023-04-26T04:17:40.881Z,17.70
2023-04-26T04:20:07.135Z,15.50
2023-04-26T04:22:30.750Z,18.40
2023-04-26T04:24:54.786Z,17.00
2023-04-26T04:27:20.593Z,19.70
2023-04-26T04:29:44.137Z,17.60
2023-04-26T04:32:09.472Z,15.70
2023-04-26T04:34:36.785Z,15.30
2023-04-26T04:37:02.078Z,18.80
2023-04-26T04:39:33.433Z,13.60
2023-04-26T04:41:57.956Z,11.40
2023-04-26T04:44:26.515Z,11.30
2023-04-26T04:46:51.998Z,10.50
2023-04-26T04:49:18.137Z,11.90
2023-04-26T04:51:41.805Z,9.60
2023-04-26T04:54:11.728Z,10.90
2023-04-26T04:56:35.493Z,16.20
2023-04-26T04:58:59.167Z,14.10
2023-04-26T05:01:23.214Z,13.00
2023-04-26T05:03:50.989Z,12.60
2023-04-26T05:06:15.389Z,9.00
2023-04-26T05:08:39.014Z,9.60
2023-04-26T05:11:04.501Z,11.30
2023-04-26T05:13:28.136Z,8.60
2023-04-26T05:15:51.503Z,11.40
2023-04-26T05:18:15.579Z,10.70
2023-04-26T05:20:39.450Z,10.50
2023-04-26T05:23:03.281Z,11.40
2023-04-26T05:25:26.832Z,12.10
2023-04-26T05:28:01.401Z,9.30
2023-04-26T05:30:45.765Z,8.70
2023-04-26T05:33:17.980Z,9.20
2023-04-26T05:35:46.273Z,10.10
2023-04-26T05:38:09.618Z,10.60
2023-04-26T05:40:33.104Z,7.80
2023-04-26T05:42:57.217Z,8.10
2023-04-26T05:45:20.872Z,7.10
2023-04-26T05:47:46.903Z,8.50
2023-04-26T05:50:11.858Z,7.60
2023-04-26T05:52:35.456Z,8.90
2023-04-26T05:54:59.257Z,7.70
2023-04-26T05:57:22.684Z,9.50
2023-04-26T05:59:46.583Z,6.60
2023-04-26T06:02:10.938Z,7.80
2023-04-26T06:04:35.707Z,8.00
2023-04-26T06:07:06.601Z,9.70
2023-04-26T06:09:32.651Z,9.00
2023-04-26T06:14:29.437Z,7.20
2023-04-26T06:16:56.799Z,8.70
2023-04-26T06:19:20.337Z,8.30
2023-04-26T06:21:44.397Z,9.80
2023-04-26T06:24:08.702Z,6.90
2023-04-26T06:26:33.638Z,6.40
2023-04-26T06:28:57.024Z,8.20
2023-04-26T06:31:22.159Z,8.10
2023-04-26T06:33:46.056Z,7.90
2023-04-26T06:36:12.893Z,7.50
2023-04-26T06:38:37.800Z,6.30
2023-04-26T06:41:01.329Z,6.70
2023-04-26T06:43:24.805Z,6.50
2023-04-26T06:45:57.452Z,7.60
2023-04-26T06:48:20.938Z,6.80
2023-04-26T06:50:44.388Z,8.50
2023-04-26T06:53:08.416Z,8.40
2023-04-26T06:55:33.586Z,10.30
2023-04-26T06:57:57.639Z,9.00
2023-04-26T07:00:22.715Z,6.10
2023-04-26T07:02:46.278Z,8.40
2023-04-26T07:05:10.538Z,9.90
2023-04-26T07:07:34.473Z,10.40
2023-04-26T07:09:57.896Z,9.30
2023-04-26T07:12:21.232Z,6.70
2023-04-26T07:14:45.294Z,7.20
2023-04-26T07:17:08.651Z,10.20
2023-04-26T07:19:32.094Z,10.80
2023-04-26T07:21:55.654Z,8.30
2023-04-26T07:24:19.009Z,7.90
2023-04-26T07:26:42.422Z,6.10
2023-04-26T07:29:06.293Z,8.50
2023-04-26T07:31:31.434Z,10.50
2023-04-26T07:33:55.239Z,6.90
2023-04-26T07:36:19.306Z,12.90
2023-04-26T07:38:42.731Z,7.80
2023-04-26T07:41:06.519Z,8.50
2023-04-26T07:43:31.075Z,7.60
2023-04-26T07:45:54.527Z,11.20
2023-04-26T07:48:18.200Z,7.80
2023-04-26T07:50:41.607Z,5.70
2023-04-26T07:53:05.559Z,9.30
2023-04-26T07:55:29.368Z,5.30
2023-04-26T07:57:52.870Z,9.40
2023-04-26T08:00:18.613Z,5.10
2023-04-26T08:02:50.433Z,11.70
2023-04-26T08:05:14.803Z,5.10
2023-04-26T08:07:38.999Z,7.40
2023-04-26T08:10:02.433Z,6.80
2023-04-26T08:12:26.038Z,12.30
2023-04-26T08:14:50.050Z,10.20
2023-04-26T08:17:13.700Z,8.90
2023-04-26T08:19:37.537Z,9.90
2023-04-26T08:22:01.043Z,6.70
2023-04-26T08:24:24.538Z,6.50
2023-04-26T08:26:47.991Z,8.10
2023-04-26T08:29:11.601Z,9.20
2023-04-26T08:31:35.673Z,7.80
2023-04-26T08:33:59.209Z,5.10
2023-04-26T08:36:22.847Z,5.60
2023-04-26T08:38:46.364Z,9.80
2023-04-26T08:41:13.046Z,6.70
2023-04-26T08:43:38.370Z,9.10
2023-04-26T08:46:02.881Z,10.50
2023-04-26T08:48:31.318Z,7.30
2023-04-26T08:50:55.488Z,11.30
2023-04-26T08:53:18.922Z,11.20
2023-04-26T08:55:42.745Z,7.50
2023-04-26T08:58:07.287Z,7.60
2023-04-26T09:00:31.384Z,5.80
2023-04-26T09:02:54.997Z,7.20
2023-04-26T09:05:23.314Z,8.40
2023-04-26T09:07:48.231Z,10.30
2023-04-26T09:10:13.844Z,6.30
2023-04-26T09:12:38.009Z,5.90
2023-04-26T09:15:06.974Z,9.00
2023-04-26T09:17:33.780Z,6.60
2023-04-26T09:20:21.071Z,4.50
2023-04-26T09:22:45.096Z,8.90
2023-04-26T09:25:12.995Z,5.20
2023-04-26T09:27:38.709Z,7.90
2023-04-26T09:30:05.530Z,6.50
2023-04-26T09:32:45.418Z,9.60
2023-04-26T09:35:17.943Z,4.90
2023-04-26T09:37:59.233Z,4.60
2023-04-26T09:40:25.795Z,6.70
2023-04-26T09:42:57.896Z,9.30
2023-04-26T09:45:21.739Z,7.80
2023-04-26T09:47:45.947Z,11.50
2023-04-26T09:50:10.347Z,7.40
2023-04-26T09:52:43.696Z,8.80
2023-04-26T09:55:14.383Z,10.40
2023-04-26T09:57:43.995Z,6.40
2023-04-26T10:00:12.244Z,5.70
2023-04-26T10:02:36.186Z,5.00
2023-04-26T10:05:01.613Z,7.00
2023-04-26T10:07:26.525Z,8.30
2023-04-26T10:09:50.992Z,7.00
2023-04-26T10:12:16.089Z,5.70
2023-04-26T10:14:41.198Z,6.60
2023-04-26T10:17:05.787Z,5.60
2023-04-26T10:19:30.573Z,6.90
2023-04-26T10:21:56.804Z,5.60
2023-04-26T10:24:22.622Z,5.20
2023-04-26T10:26:51.305Z,5.60
2023-04-26T10:29:17.999Z,8.10
2023-04-26T10:32:07.952Z,8.20
2023-04-26T10:34:33.101Z,5.60
2023-04-26T10:37:11.093Z,7.50
2023-04-26T10:39:36.272Z,7.30
2023-04-26T10:42:24.277Z,6.50
2023-04-26T10:44:51.746Z,6.70
2023-04-26T10:47:36.603Z,6.40
2023-04-26T10:50:09.119Z,6.60
2023-04-26T10:53:05.728Z,13.30
2023-04-26T10:55:46.704Z,8.10
2023-04-26T10:58:27.841Z,6.90
2023-04-26T11:01:05.661Z,8.60
2023-04-26T11:03:31.366Z,8.50
2023-04-26T11:05:57.622Z,8.80
2023-04-26T11:08:25.084Z,7.90
2023-04-26T11:10:57.148Z,8.10
2023-04-26T11:13:20.877Z,6.70
2023-04-26T11:15:59.866Z,8.20
2023-04-26T11:18:24.029Z,6.10
2023-04-26T11:20:47.778Z,10.40
2023-04-26T11:23:13.924Z,4.90
2023-04-26T11:25:39.664Z,6.90
2023-04-26T11:28:06.300Z,4.50
2023-04-26T11:30:31.547Z,6.40
2023-04-26T11:32:55.066Z,9.30
2023-04-26T11:35:21.179Z,6.10
2023-04-26T11:37:46.544Z,7.70
2023-04-26T11:40:12.324Z,3.80
2023-04-26T11:42:35.668Z,9.10
2023-04-26T11:45:01.185Z,7.90
2023-04-26T11:47:25.781Z,7.90
2023-04-26T11:49:49.565Z,7.00
2023-04-26T11:52:14.024Z,7.30
2023-04-26T11:54:38.055Z,6.60
2023-04-26T11:57:13.405Z,8.40
2023-04-26T11:59:38.246Z,4.70
2023-04-26T12:02:06.893Z,7.70
2023-04-26T12:04:30.919Z,7.00
2023-04-26T12:06:55.180Z,6.30
2023-04-26T12:09:24.131Z,7.70
2023-04-26T12:11:53.271Z,5.80
2023-04-26T12:14:17.506Z,7.90
2023-04-26T12:16:43.095Z,4.30
2023-04-26T12:19:07.784Z,5.30
2023-04-26T12:21:41.509Z,7.50
2023-04-26T12:24:06.182Z,6.70
2023-04-26T12:26:44.385Z,5.90
2023-04-26T12:29:08.790Z,8.10
2023-04-26T12:31:32.259Z,7.90
2023-04-26T12:33:56.105Z,11.10
2023-04-26T12:36:20.610Z,6.90
2023-04-26T12:38:44.343Z,4.30
2023-04-26T12:41:08.114Z,10.30
2023-04-26T12:43:31.784Z,8.00
2023-04-26T12:45:55.645Z,9.40
2023-04-26T12:48:19.769Z,5.00
2023-04-26T12:50:45.159Z,5.90
2023-04-26T12:53:20.058Z,5.30
2023-04-26T12:55:47.081Z,5.80
2023-04-26T12:58:10.836Z,5.60
2023-04-26T13:00:35.491Z,9.40
2023-04-26T13:02:59.150Z,9.00
2023-04-26T13:05:24.021Z,7.70
2023-04-26T13:07:47.931Z,9.90
2023-04-26T13:10:13.155Z,9.40
2023-04-26T13:12:37.075Z,9.70
2023-04-26T13:15:00.881Z,10.90
2023-04-26T13:17:25.987Z,9.60
2023-04-26T13:19:49.345Z,7.80
2023-04-26T13:22:13.175Z,5.70
2023-04-26T13:24:36.883Z,9.40
2023-04-26T13:27:00.551Z,10.20
2023-04-26T13:29:31.759Z,6.00
2023-04-26T13:31:55.659Z,6.30
2023-04-26T13:34:19.245Z,7.80
2023-04-26T13:36:42.859Z,5.20
2023-04-26T13:39:06.748Z,7.70
2023-04-26T13:41:34.318Z,9.20
2023-04-26T13:43:58.210Z,5.00
2023-04-26T13:46:21.836Z,7.00
2023-04-26T13:48:45.369Z,5.40
2023-04-26T13:51:08.815Z,6.30
2023-04-26T13:53:32.680Z,7.70
2023-04-26T13:55:56.573Z,5.20
2023-04-26T13:58:20.232Z,4.90
2023-04-26T14:00:44.215Z,4.50
2023-04-26T14:03:07.895Z,5.30
2023-04-26T14:05:35.014Z,7.70
2023-04-26T14:10:23.674Z,6.50
2023-04-26T14:12:50.476Z,8.10
2023-04-26T14:15:14.581Z,4.90
2023-04-26T14:17:38.176Z,6.10
2023-04-26T14:20:01.753Z,5.40
2023-04-26T14:22:26.514Z,5.20
2023-04-26T14:24:50.120Z,6.30
2023-04-26T14:27:13.800Z,8.00
2023-04-26T14:29:37.296Z,9.00
2023-04-26T14:32:01.023Z,8.80
2023-04-26T14:34:25.788Z,8.90
2023-04-26T14:36:49.352Z,6.30
2023-04-26T14:39:12.804Z,9.30
2023-04-26T14:41:36.749Z,8.50
2023-04-26T14:44:00.213Z,7.70
2023-04-26T14:46:23.797Z,11.10
2023-04-26T14:48:47.223Z,10.60
2023-04-26T14:51:11.428Z,7.80
2023-04-26T14:53:35.314Z,7.00
2023-04-26T14:56:00.047Z,9.00
2023-04-26T14:58:24.029Z,7.90
2023-04-26T15:00:47.994Z,6.40
2023-04-26T15:03:11.653Z,9.30
2023-04-26T15:05:35.771Z,9.90
2023-04-26T15:07:59.314Z,10.10
2023-04-26T15:10:22.980Z,11.90
2023-04-26T15:12:46.690Z,9.50
2023-04-26T15:15:30.648Z,9.90
2023-04-26T15:17:54.141Z,7.10
2023-04-26T15:20:17.974Z,7.90
2023-04-26T15:22:41.680Z,7.40
2023-04-26T15:25:06.935Z,6.40
2023-04-26T15:27:30.531Z,7.50
2023-04-26T15:29:55.916Z,7.90
2023-04-26T15:32:19.350Z,6.70
2023-04-26T15:34:44.354Z,8.10
2023-04-26T15:37:07.865Z,9.10
2023-04-26T15:39:31.414Z,10.10
2023-04-26T15:41:54.936Z,6.30
2023-04-26T15:44:21.892Z,8.90
2023-04-26T15:46:48.502Z,9.00
2023-04-26T15:49:14.948Z,8.50
2023-04-26T15:51:41.792Z,8.10
2023-04-26T15:54:06.012Z,7.70
2023-04-26T15:56:29.641Z,7.40
2023-04-26T15:58:53.415Z,7.80
2023-04-26T16:01:18.193Z,5.70
2023-04-26T16:06:16.676Z,5.90
2023-04-26T16:08:41.063Z,7.20
2023-04-26T16:11:05.334Z,8.60
2023-04-26T16:13:29.762Z,10.20
2023-04-26T16:15:53.345Z,8.10
2023-04-26T16:18:17.220Z,6.90
2023-04-26T16:20:40.670Z,6.50
2023-04-26T16:23:04.141Z,6.60
2023-04-26T16:25:27.693Z,11.30
2023-04-26T16:27:51.161Z,8.00
2023-04-26T16:30:15.369Z,7.80
2023-04-26T16:32:39.155Z,7.30
2023-04-26T16:35:02.702Z,10.40
2023-04-26T16:37:26.480Z,10.10
2023-04-26T16:39:53.698Z,6.10
2023-04-26T16:42:17.051Z,7.80
2023-04-26T16:44:40.813Z,9.20
2023-04-26T16:47:05.142Z,6.80
2023-04-26T16:49:29.043Z,8.80
2023-04-26T16:51:58.040Z,10.40
2023-04-26T16:54:21.781Z,7.60
2023-04-26T16:56:45.700Z,5.60
2023-04-26T16:59:09.268Z,8.20
2023-04-26T17:01:33.203Z,6.60
2023-04-26T17:03:56.855Z,12.60
2023-04-26T17:06:23.986Z,7.20
2023-04-26T17:08:47.766Z,8.30
2023-04-26T17:11:15.158Z,8.40
2023-04-26T17:13:42.063Z,9.40
2023-04-26T17:16:07.353Z,12.90
2023-04-26T17:18:31.028Z,6.60
2023-04-26T17:20:55.720Z,16.10
2023-04-26T17:23:20.277Z,9.60
2023-04-26T17:25:43.995Z,8.30
2023-04-26T17:28:07.370Z,11.80
2023-04-26T17:30:31.020Z,10.50
2023-04-26T17:32:55.388Z,12.20
2023-04-26T17:35:19.010Z,9.70
2023-04-26T17:37:43.434Z,16.20
2023-04-26T17:40:09.363Z,11.30
2023-04-26T17:42:35.663Z,11.00
2023-04-26T17:45:01.736Z,15.70
2023-04-26T17:47:36.373Z,16.80
2023-04-26T17:50:21.243Z,15.80
2023-04-26T17:52:45.009Z,12.30
2023-04-26T17:55:09.593Z,14.70
2023-04-26T17:57:33.773Z,16.80
2023-04-26T18:00:09.593Z,14.40
2023-04-26T18:02:33.552Z,9.90
2023-04-26T18:05:00.419Z,13.30
2023-04-26T18:07:26.470Z,10.30
2023-04-26T18:09:50.148Z,12.60
2023-04-26T18:12:17.134Z,7.70
2023-04-26T18:14:52.108Z,11.50
2023-04-26T18:17:16.110Z,12.10
2023-04-26T18:19:39.762Z,12.30
2023-04-26T18:22:07.172Z,9.90
2023-04-26T18:24:30.874Z,13.00
2023-04-26T18:26:54.750Z,10.90
2023-04-26T18:29:21.024Z,11.30
2023-04-26T18:31:44.688Z,12.00
2023-04-26T18:34:10.124Z,11.00
2023-04-26T18:36:33.969Z,12.00
2023-04-26T18:38:58.625Z,11.20
2023-04-26T18:41:24.062Z,10.40
2023-04-26T18:43:47.798Z,11.90
2023-04-26T18:46:11.312Z,13.40
2023-04-26T18:48:35.446Z,13.10
2023-04-26T18:50:59.213Z,17.90
2023-04-26T18:53:23.216Z,15.30
2023-04-26T18:55:46.960Z,19.90
2023-04-26T18:58:10.838Z,15.70
2023-04-26T19:00:34.267Z,15.30
2023-04-26T19:05:23.713Z,20.40
2023-04-26T19:07:47.120Z,20.40
2023-04-26T19:10:11.577Z,13.80
2023-04-26T19:12:35.199Z,13.60
2023-04-26T19:14:58.790Z,14.80
2023-04-26T19:17:22.565Z,14.20
2023-04-26T19:19:46.496Z,17.50
2023-04-26T19:22:09.901Z,13.10
2023-04-26T19:24:33.343Z,13.00
2023-04-26T19:26:57.212Z,12.60
2023-04-26T19:29:20.817Z,12.20
2023-04-26T19:31:44.784Z,10.10
2023-04-26T19:34:09.319Z,16.30
2023-04-26T19:36:35.642Z,15.00
2023-04-26T19:38:59.565Z,11.80
2023-04-26T19:41:23.833Z,12.20
2023-04-26T19:43:47.402Z,15.10
2023-04-26T19:46:14.780Z,15.10
2023-04-26T19:48:38.513Z,13.90
2023-04-26T19:51:02.040Z,14.50
2023-04-26T19:53:25.563Z,13.00
2023-04-26T19:55:49.838Z,14.60
2023-04-26T19:58:13.450Z,14.00
2023-04-26T20:00:38.069Z,14.90
2023-04-26T20:03:03.019Z,15.60
2023-04-26T20:05:27.193Z,20.00
2023-04-26T20:07:50.691Z,18.50
2023-04-26T20:10:15.206Z,18.00
2023-04-26T20:12:38.619Z,19.50
2023-04-26T20:15:02.169Z,15.90
2023-04-26T20:17:25.922Z,17.80
2023-04-26T20:19:49.511Z,19.00
2023-04-26T20:22:13.035Z,20.00
2023-04-26T20:24:36.733Z,17.30
2023-04-26T20:27:01.421Z,21.00
2023-04-26T20:29:27.959Z,22.90
2023-04-26T20:31:51.591Z,20.00
2023-04-26T20:34:15.181Z,20.50
2023-04-26T20:36:38.973Z,25.30
2023-04-26T20:39:02.712Z,21.00
2023-04-26T20:41:26.129Z,20.40
2023-04-26T20:43:49.612Z,22.30
2023-04-26T20:46:13.310Z,19.50
2023-04-26T20:48:36.783Z,19.80
2023-04-26T20:51:01.384Z,19.80
2023-04-26T20:53:26.316Z,22.20
2023-04-26T20:55:52.402Z,20.70
2023-04-26T20:58:16.187Z,19.00
2023-04-26T21:00:41.687Z,30.00
2023-04-26T21:03:05.474Z,21.30
2023-04-26T21:05:29.449Z,25.30
2023-04-26T21:10:18.322Z,25.00
2023-04-26T21:12:41.878Z,25.50
2023-04-26T21:15:08.165Z,23.20
2023-04-26T21:17:31.762Z,23.50
2023-04-26T21:19:58.585Z,24.30
2023-04-26T21:22:22.561Z,20.70
2023-04-26T21:24:46.067Z,27.10
2023-04-26T21:27:10.181Z,20.60
2023-04-26T21:29:36.496Z,21.80
2023-04-26T21:31:59.975Z,23.10
2023-04-26T21:34:23.716Z,19.70
2023-04-26T21:36:47.385Z,22.60
2023-04-26T21:39:11.374Z,23.50
2023-04-26T21:41:38.800Z,21.40
2023-04-26T21:44:02.699Z,22.10
2023-04-26T21:46:37.782Z,20.00
2023-04-26T21:49:01.593Z,24.50
2023-04-26T21:51:25.377Z,19.80
2023-04-26T21:53:48.834Z,21.20
2023-04-26T21:56:14.325Z,21.90
2023-04-26T21:58:37.877Z,26.40
2023-04-26T22:01:09.351Z,25.20
2023-04-26T22:03:33.236Z,23.40
2023-04-26T22:05:57.045Z,21.60
2023-04-26T22:08:22.777Z,21.90
2023-04-26T22:10:46.634Z,23.50
2023-04-26T22:13:10.511Z,17.60
2023-04-26T22:15:37.191Z,19.30
2023-04-26T22:18:01.042Z,24.20
2023-04-26T22:20:25.260Z,20.80
2023-04-26T22:23:09.391Z,18.40
2023-04-26T22:27:58.191Z,20.90
2023-04-26T22:30:25.546Z,19.00
2023-04-26T22:32:52.969Z,22.30
2023-04-26T22:35:16.443Z,17.90
2023-04-26T22:37:40.622Z,21.60
2023-04-26T22:40:07.473Z,20.70
2023-04-26T22:42:30.916Z,16.70
2023-04-26T22:44:54.480Z,23.30
2023-04-26T22:47:18.164Z,19.10
2023-04-26T22:49:41.640Z,18.70
2023-04-26T22:52:09.790Z,17.70
2023-04-26T22:54:40.766Z,20.40
2023-04-26T22:57:04.981Z,19.00
2023-04-26T22:59:29.303Z,22.80
2023-04-26T23:01:53.382Z,19.10
2023-04-26T23:04:19.472Z,22.80
2023-04-26T23:07:03.658Z,20.90
2023-04-26T23:09:29.834Z,24.80
2023-04-26T23:11:56.424Z,23.00
2023-04-26T23:14:23.677Z,20.90
2023-04-26T23:16:47.178Z,18.70
2023-04-26T23:19:10.782Z,23.90
2023-04-26T23:21:37.903Z,20.40
2023-04-26T23:24:01.449Z,19.90
2023-04-26T23:26:24.969Z,18.40
2023-04-26T23:28:51.734Z,22.20
2023-04-26T23:31:26.465Z,19.40
2023-04-26T23:33:49.919Z,17.40
2023-04-26T23:36:13.690Z,20.80
2023-04-26T23:38:37.155Z,18.30
2023-04-26T23:41:00.788Z,19.30
2023-04-26T23:43:25.006Z,19.00
2023-04-26T23:45:49.586Z,17.70
2023-04-26T23:48:13.598Z,17.90
2023-04-26T23:50:37.326Z,19.10
2023-04-26T23:53:00.808Z,20.30
2023-04-26T23:55:24.226Z,18.60
2023-04-26T23:57:48.045Z,23.10
